createdAt,value
2018-07-17T00:00:37.685Z,76.80
2018-07-17T00:03:06.220Z,76.40
2018-07-17T00:05:34.672Z,76.40
2018-07-17T00:08:03.232Z,76.40
2018-07-17T00:10:31.681Z,76.40
2018-07-17T00:13:00.121Z,77.30
2018-07-17T00:15:29.300Z,77.00
2018-07-17T00:17:57.753Z,76.80
2018-07-17T00:20:26.180Z,77.70
2018-07-17T00:22:55.169Z,77.70
2018-07-17T00:25:23.658Z,77.10
2018-07-17T00:27:52.160Z,77.80
2018-07-17T00:30:20.620Z,79.00
2018-07-17T00:32:55.584Z,78.90
2018-07-17T00:35:23.989Z,78.30
2018-07-17T00:37:52.481Z,78.00
2018-07-17T00:40:21.662Z,77.90
2018-07-17T00:42:50.108Z,78.10
2018-07-17T00:45:18.691Z,78.20
2018-07-17T00:47:47.105Z,78.30
2018-07-17T00:50:16.240Z,78.10
2018-07-17T00:52:45.419Z,77.90
2018-07-17T00:55:13.862Z,77.80
2018-07-17T00:57:42.369Z,78.00
2018-07-17T01:00:10.840Z,78.30
2018-07-17T01:02:44.708Z,78.60
2018-07-17T01:05:19.202Z,78.80
2018-07-17T01:07:52.992Z,78.50
2018-07-17T01:10:26.696Z,79.20
2018-07-17T01:12:54.411Z,78.30
2018-07-17T01:15:28.621Z,78.40
2018-07-17T01:17:57.252Z,78.50
2018-07-17T01:20:26.221Z,78.40
2018-07-17T01:22:54.896Z,78.70
2018-07-17T01:25:23.816Z,78.60
2018-07-17T01:27:52.563Z,77.90
2018-07-17T01:30:20.988Z,77.70
2018-07-17T01:32:50.250Z,78.00
2018-07-17T01:35:18.780Z,78.50
2018-07-17T01:37:47.218Z,78.80
2018-07-17T01:40:15.650Z,78.90
2018-07-17T01:42:44.110Z,79.20
2018-07-17T01:45:12.557Z,78.50
2018-07-17T01:47:41.252Z,78.80
2018-07-17T01:50:09.721Z,79.00
2018-07-17T01:52:38.828Z,78.90
2018-07-17T01:55:07.249Z,78.70
2018-07-17T01:57:35.749Z,78.20
2018-07-17T02:00:04.744Z,79.20
2018-07-17T02:02:33.223Z,80.20
2018-07-17T02:05:01.655Z,80.60
2018-07-17T02:07:30.089Z,80.40
2018-07-17T02:09:58.507Z,80.30
2018-07-17T02:12:26.960Z,80.80
2018-07-17T02:14:55.368Z,80.90
2018-07-17T02:17:23.768Z,81.60
2018-07-17T02:19:52.356Z,81.80
2018-07-17T02:22:20.773Z,82.00
2018-07-17T02:24:49.224Z,82.20
2018-07-17T02:27:17.693Z,82.30
2018-07-17T02:29:46.132Z,82.30
2018-07-17T02:32:14.690Z,82.10
2018-07-17T02:34:43.089Z,81.60
2018-07-17T02:37:11.521Z,81.70
2018-07-17T02:39:40.157Z,81.80
2018-07-17T02:42:08.659Z,82.70
2018-07-17T02:44:37.074Z,83.30
2018-07-17T02:47:05.545Z,84.10
2018-07-17T02:49:33.940Z,84.50
2018-07-17T02:52:02.531Z,84.70
2018-07-17T02:54:30.940Z,85.10
2018-07-17T02:56:59.414Z,85.50
2018-07-17T02:59:27.833Z,85.70
2018-07-17T03:01:56.686Z,86.10
2018-07-17T03:04:25.105Z,86.00
2018-07-17T03:06:53.688Z,86.00
2018-07-17T03:09:22.097Z,85.80
2018-07-17T03:11:50.533Z,86.30
2018-07-17T03:14:19.761Z,86.60
2018-07-17T03:16:48.669Z,87.10
2018-07-17T03:19:17.074Z,87.50
2018-07-17T03:21:45.484Z,87.30
2018-07-17T03:24:13.936Z,87.10
2018-07-17T03:26:42.400Z,86.90
2018-07-17T03:29:10.802Z,87.20
2018-07-17T03:31:39.300Z,87.30
2018-07-17T03:34:07.734Z,87.00
2018-07-17T03:36:36.658Z,86.60
2018-07-17T03:39:06.914Z,85.80
2018-07-17T03:41:35.293Z,85.60
2018-07-17T03:44:03.736Z,85.90
2018-07-17T03:46:32.168Z,86.00
2018-07-17T03:49:00.633Z,85.60
2018-07-17T03:51:29.063Z,86.00
2018-07-17T03:53:57.472Z,86.10
2018-07-17T03:56:25.909Z,85.90
2018-07-17T03:58:54.352Z,86.10
2018-07-17T04:01:22.762Z,85.90
2018-07-17T04:03:51.181Z,86.30
2018-07-17T04:06:19.605Z,86.20
2018-07-17T04:08:48.139Z,86.10
2018-07-17T04:11:16.503Z,85.70
2018-07-17T04:13:44.918Z,85.60
2018-07-17T04:16:13.569Z,85.40
2018-07-17T04:18:42.074Z,84.80
2018-07-17T04:21:10.476Z,84.80
2018-07-17T04:23:39.012Z,85.10
2018-07-17T04:26:07.433Z,85.00
2018-07-17T04:28:35.876Z,83.60
2018-07-17T04:31:04.281Z,82.10
2018-07-17T04:33:32.689Z,82.20
2018-07-17T04:36:01.251Z,81.70
2018-07-17T04:38:29.786Z,81.30
2018-07-17T04:40:58.211Z,81.00
2018-07-17T04:43:26.692Z,80.20
2018-07-17T04:45:55.132Z,79.80
2018-07-17T04:48:23.687Z,80.80
2018-07-17T04:50:52.327Z,80.70
2018-07-17T04:53:20.796Z,79.80
2018-07-17T04:55:49.365Z,79.10
2018-07-17T04:58:17.788Z,79.80
2018-07-17T05:00:46.216Z,78.80
2018-07-17T05:03:14.677Z,79.70
2018-07-17T05:05:43.096Z,79.10
2018-07-17T05:08:11.521Z,78.80
2018-07-17T05:10:39.976Z,78.70
2018-07-17T05:13:08.385Z,79.30
2018-07-17T05:15:36.925Z,79.60
2018-07-17T05:18:05.396Z,79.50
2018-07-17T05:20:33.833Z,79.90
2018-07-17T05:23:02.349Z,80.00
2018-07-17T05:25:30.792Z,79.80
2018-07-17T05:27:59.245Z,80.40
2018-07-17T05:30:27.813Z,80.40
2018-07-17T05:32:56.231Z,80.20
2018-07-17T05:35:24.888Z,80.10
2018-07-17T05:37:53.318Z,79.30
2018-07-17T05:40:21.773Z,79.00
2018-07-17T05:42:50.201Z,78.70
2018-07-17T05:45:18.625Z,78.60
2018-07-17T05:47:47.416Z,77.50
2018-07-17T05:50:15.896Z,76.70
2018-07-17T05:52:44.344Z,75.90
2018-07-17T05:55:12.837Z,76.00
2018-07-17T05:57:41.256Z,76.60
2018-07-17T06:00:10.212Z,75.00
2018-07-17T06:02:38.697Z,74.90
2018-07-17T06:05:07.234Z,75.10
2018-07-17T06:07:36.380Z,75.20
2018-07-17T06:10:05.931Z,75.20
2018-07-17T06:12:34.620Z,75.30
2018-07-17T06:15:03.025Z,75.50
2018-07-17T06:17:31.608Z,75.60
2018-07-17T06:20:00.134Z,74.40
2018-07-17T06:22:28.502Z,74.60
2018-07-17T06:24:57.064Z,73.90
2018-07-17T06:27:26.328Z,73.50
2018-07-17T06:29:54.737Z,72.20
2018-07-17T06:32:23.843Z,72.60
2018-07-17T06:34:52.393Z,73.40
2018-07-17T06:37:20.813Z,73.20
2018-07-17T06:39:49.274Z,73.10
2018-07-17T06:42:17.900Z,71.90
2018-07-17T06:44:46.395Z,72.60
2018-07-17T06:47:14.827Z,72.20
2018-07-17T06:49:43.347Z,72.00
2018-07-17T06:52:12.181Z,73.00
2018-07-17T06:54:40.680Z,74.20
2018-07-17T06:57:09.112Z,74.00
2018-07-17T06:59:37.600Z,73.00
2018-07-17T07:02:06.045Z,73.20
2018-07-17T07:04:34.450Z,71.70
2018-07-17T07:07:03.126Z,70.70
2018-07-17T07:09:31.679Z,70.20
2018-07-17T07:12:00.121Z,69.70
2018-07-17T07:14:28.568Z,67.90
2018-07-17T07:16:57.032Z,67.20
2018-07-17T07:19:25.447Z,67.30
2018-07-17T07:21:53.873Z,66.60
2018-07-17T07:24:22.271Z,67.50
2018-07-17T07:26:50.816Z,67.50
2018-07-17T07:29:19.232Z,65.50
2018-07-17T07:31:48.156Z,66.70
2018-07-17T07:34:16.544Z,66.40
2018-07-17T07:36:45.011Z,65.20
2018-07-17T07:39:13.406Z,64.30
2018-07-17T07:41:41.891Z,64.70
2018-07-17T07:44:10.392Z,64.30
2018-07-17T07:46:39.005Z,64.00
2018-07-17T07:49:07.438Z,64.10
2018-07-17T07:51:35.921Z,63.30
2018-07-17T07:54:04.352Z,63.50
2018-07-17T07:56:32.872Z,63.60
2018-07-17T08:01:30.256Z,62.00
2018-07-17T08:03:58.769Z,62.50
2018-07-17T08:06:27.145Z,60.70
2018-07-17T08:08:55.597Z,60.80
2018-07-17T08:11:24.033Z,60.00
2018-07-17T08:13:52.719Z,60.30
2018-07-17T08:16:21.257Z,60.00
2018-07-17T08:18:49.688Z,59.40
2018-07-17T08:21:18.124Z,59.30
2018-07-17T08:23:47.297Z,58.20
2018-07-17T08:26:15.721Z,58.70
2018-07-17T08:28:44.224Z,57.90
2018-07-17T08:31:12.669Z,57.40
2018-07-17T08:33:41.092Z,56.40
2018-07-17T08:36:09.732Z,56.50
2018-07-17T08:38:38.185Z,56.30
2018-07-17T08:41:06.941Z,55.90
2018-07-17T08:43:35.438Z,54.20
2018-07-17T08:46:03.919Z,54.30
2018-07-17T08:48:32.429Z,54.00
2018-07-17T08:51:00.858Z,53.60
2018-07-17T08:53:29.558Z,53.10
2018-07-17T08:55:58.841Z,51.60
2018-07-17T08:58:27.979Z,52.80
2018-07-17T09:00:56.392Z,51.30
2018-07-17T09:03:24.841Z,52.10
2018-07-17T09:08:21.811Z,50.70
2018-07-17T09:10:50.222Z,50.60
2018-07-17T09:13:18.652Z,49.80
2018-07-17T09:15:47.201Z,49.80
2018-07-17T09:18:15.645Z,48.00
2018-07-17T09:20:44.091Z,47.10
2018-07-17T09:23:12.549Z,47.20
2018-07-17T09:25:41.018Z,47.80
2018-07-17T09:28:10.154Z,47.00
2018-07-17T09:30:44.073Z,48.20
2018-07-17T09:33:12.579Z,48.50
2018-07-17T09:35:41.016Z,47.10
2018-07-17T09:38:09.830Z,46.90
2018-07-17T09:40:38.507Z,45.70
2018-07-17T09:43:07.404Z,45.40
2018-07-17T09:45:35.848Z,44.70
2018-07-17T09:48:04.758Z,43.90
2018-07-17T09:50:33.179Z,44.10
2018-07-17T09:53:01.614Z,44.20
2018-07-17T09:55:30.133Z,43.70
2018-07-17T09:57:58.669Z,43.60
2018-07-17T10:00:32.602Z,43.30
2018-07-17T10:03:01.110Z,43.50
2018-07-17T10:05:29.563Z,43.00
2018-07-17T10:07:58.253Z,42.00
2018-07-17T10:10:26.953Z,40.90
2018-07-17T10:12:55.412Z,41.40
2018-07-17T10:15:23.857Z,38.90
2018-07-17T10:17:52.323Z,38.70
2018-07-17T10:20:20.807Z,39.30
2018-07-17T10:22:49.249Z,39.40
2018-07-17T10:25:17.705Z,40.60
2018-07-17T10:27:46.178Z,41.20
2018-07-17T10:30:14.614Z,39.60
2018-07-17T10:32:43.032Z,39.40
2018-07-17T10:35:11.456Z,39.40
2018-07-17T10:37:39.984Z,41.00
2018-07-17T10:40:08.726Z,40.60
2018-07-17T10:42:37.234Z,40.70
2018-07-17T10:45:05.741Z,41.30
2018-07-17T10:47:34.870Z,40.30
2018-07-17T10:50:03.409Z,39.20
2018-07-17T10:52:31.864Z,40.30
2018-07-17T10:55:00.878Z,40.20
2018-07-17T10:57:29.334Z,40.70
2018-07-17T10:59:57.842Z,41.10
2018-07-17T11:02:26.271Z,39.20
2018-07-17T11:04:55.295Z,38.60
2018-07-17T11:07:23.759Z,38.40
2018-07-17T11:09:52.260Z,37.60
2018-07-17T11:12:20.730Z,37.80
2018-07-17T11:14:49.160Z,37.80
2018-07-17T11:17:17.649Z,38.90
2018-07-17T11:19:46.267Z,38.60
2018-07-17T11:22:14.701Z,39.70
2018-07-17T11:24:43.185Z,38.90
2018-07-17T11:27:11.676Z,39.60
2018-07-17T11:29:40.089Z,39.60
2018-07-17T11:32:08.686Z,38.30
2018-07-17T11:34:37.162Z,37.70
2018-07-17T11:37:05.717Z,36.90
2018-07-17T11:39:34.129Z,38.50
2018-07-17T11:44:30.829Z,37.40
2018-07-17T11:47:00.197Z,37.90
2018-07-17T11:49:28.692Z,37.00
2018-07-17T11:51:57.113Z,36.40
2018-07-17T11:54:26.421Z,35.90
2018-07-17T11:56:54.874Z,35.00
2018-07-17T11:59:23.568Z,36.60
2018-07-17T12:01:52.111Z,35.00
2018-07-17T12:04:20.570Z,35.30
2018-07-17T12:06:49.911Z,32.80
2018-07-17T12:09:18.377Z,34.20
2018-07-17T12:11:46.810Z,34.40
2018-07-17T12:14:15.268Z,34.60
2018-07-17T12:16:43.749Z,34.80
2018-07-17T12:19:12.263Z,34.90
2018-07-17T12:21:40.712Z,34.90
2018-07-17T12:24:09.262Z,35.20
2018-07-17T12:26:37.769Z,34.80
2018-07-17T12:29:06.324Z,34.10
2018-07-17T12:31:35.335Z,35.20
2018-07-17T12:34:03.916Z,35.70
2018-07-17T12:36:32.602Z,34.50
2018-07-17T12:39:01.133Z,35.10
2018-07-17T12:41:29.679Z,34.60
2018-07-17T12:43:58.366Z,34.80
2018-07-17T12:46:26.976Z,35.80
2018-07-17T12:48:55.528Z,34.70
2018-07-17T12:51:24.025Z,34.00
2018-07-17T12:53:52.461Z,36.10
2018-07-17T12:56:21.028Z,35.70
2018-07-17T12:58:49.926Z,35.90
2018-07-17T13:01:18.461Z,36.00
2018-07-17T13:03:46.934Z,36.20
2018-07-17T13:06:15.427Z,36.50
2018-07-17T13:08:44.134Z,36.80
2018-07-17T13:11:12.673Z,36.20
2018-07-17T13:16:09.377Z,37.10
2018-07-17T13:18:37.856Z,36.10
2018-07-17T13:21:06.787Z,35.80
2018-07-17T13:23:35.339Z,36.70
2018-07-17T13:26:03.779Z,35.00
2018-07-17T13:28:32.283Z,34.90
2018-07-17T13:31:00.861Z,35.20
2018-07-17T13:33:29.399Z,35.10
2018-07-17T13:35:57.879Z,36.30
2018-07-17T13:38:26.349Z,35.50
2018-07-17T13:40:54.852Z,35.80
2018-07-17T13:43:23.502Z,35.00
2018-07-17T13:45:52.015Z,34.40
2018-07-17T13:48:20.509Z,34.20
2018-07-17T13:50:49.025Z,35.40
2018-07-17T13:53:17.476Z,35.30
2018-07-17T13:55:46.016Z,34.70
2018-07-17T13:58:14.499Z,35.10
2018-07-17T14:00:43.186Z,34.70
2018-07-17T14:03:11.689Z,34.70
2018-07-17T14:05:40.231Z,34.80
2018-07-17T14:08:08.691Z,36.50
2018-07-17T14:10:37.141Z,35.10
2018-07-17T14:13:06.062Z,34.60
2018-07-17T14:15:34.571Z,34.90
2018-07-17T14:18:03.068Z,33.50
2018-07-17T14:20:31.570Z,32.50
2018-07-17T14:23:00.046Z,33.60
2018-07-17T14:25:28.527Z,34.30
2018-07-17T14:27:57.369Z,32.90
2018-07-17T14:30:25.858Z,33.30
2018-07-17T14:32:54.448Z,33.00
2018-07-17T14:35:22.903Z,33.00
2018-07-17T14:37:51.368Z,32.50
2018-07-17T14:40:19.887Z,33.40
2018-07-17T14:42:48.385Z,32.50
2018-07-17T14:45:16.827Z,32.80
2018-07-17T14:47:45.325Z,33.20
2018-07-17T14:50:14.000Z,33.30
2018-07-17T14:52:42.541Z,32.50
2018-07-17T14:55:11.721Z,32.30
2018-07-17T14:57:40.861Z,32.00
2018-07-17T15:00:10.399Z,31.90
2018-07-17T15:02:39.291Z,31.90
2018-07-17T15:05:09.509Z,31.80
2018-07-17T15:07:38.048Z,31.00
2018-07-17T15:10:07.046Z,30.50
2018-07-17T15:12:35.596Z,31.20
2018-07-17T15:15:04.711Z,31.00
2018-07-17T15:17:33.208Z,32.10
2018-07-17T15:20:01.710Z,32.30
2018-07-17T15:22:30.272Z,31.40
2018-07-17T15:24:59.005Z,31.80
2018-07-17T15:27:27.494Z,32.80
2018-07-17T15:29:56.026Z,33.40
2018-07-17T15:32:24.542Z,33.20
2018-07-17T15:34:53.342Z,33.80
2018-07-17T15:37:21.821Z,33.20
2018-07-17T15:39:50.334Z,32.90
2018-07-17T15:42:19.609Z,33.10
2018-07-17T15:44:48.048Z,34.10
2018-07-17T15:47:16.663Z,34.00
2018-07-17T15:49:45.216Z,34.20
2018-07-17T15:52:13.678Z,34.20
2018-07-17T15:54:42.932Z,33.70
2018-07-17T15:57:11.437Z,34.20
2018-07-17T15:59:40.012Z,34.40
2018-07-17T16:02:08.521Z,34.40
2018-07-17T16:04:37.478Z,34.10
2018-07-17T16:07:05.885Z,34.10
2018-07-17T16:09:34.441Z,34.20
2018-07-17T16:12:03.047Z,34.50
2018-07-17T16:14:31.787Z,34.40
2018-07-17T16:17:00.136Z,34.60
2018-07-17T16:19:28.614Z,36.50
2018-07-17T16:21:57.196Z,35.80
2018-07-17T16:24:25.724Z,36.40
2018-07-17T16:26:54.266Z,37.00
2018-07-17T16:29:22.736Z,37.00
2018-07-17T16:31:51.237Z,38.20
2018-07-17T16:34:19.687Z,38.20
2018-07-17T16:36:48.208Z,38.00
2018-07-17T16:39:16.675Z,38.80
2018-07-17T16:41:45.120Z,38.30
2018-07-17T16:44:13.548Z,39.00
2018-07-17T16:46:41.999Z,39.50
2018-07-17T16:49:10.552Z,40.20
2018-07-17T16:51:39.075Z,40.10
2018-07-17T16:54:07.558Z,41.20
2018-07-17T16:56:36.086Z,40.70
2018-07-17T16:59:04.640Z,41.30
2018-07-17T17:01:33.136Z,41.20
2018-07-17T17:04:01.589Z,41.40
2018-07-17T17:06:30.070Z,42.20
2018-07-17T17:08:58.537Z,41.00
2018-07-17T17:11:27.035Z,40.10
2018-07-17T17:13:55.964Z,40.00
2018-07-17T17:16:24.428Z,40.00
2018-07-17T17:18:52.873Z,41.20
2018-07-17T17:21:21.301Z,39.60
2018-07-17T17:23:49.740Z,39.80
2018-07-17T17:26:18.203Z,39.40
2018-07-17T17:28:47.384Z,39.00
2018-07-17T17:31:15.835Z,39.10
2018-07-17T17:33:44.302Z,39.50
2018-07-17T17:36:12.802Z,39.80
2018-07-17T17:38:41.311Z,39.70
2018-07-17T17:41:09.724Z,39.00
2018-07-17T17:43:38.188Z,38.70
2018-07-17T17:46:06.646Z,38.20
2018-07-17T17:48:35.166Z,37.90
2018-07-17T17:51:03.690Z,38.70
2018-07-17T17:53:32.215Z,38.30
2018-07-17T17:56:00.821Z,38.60
2018-07-17T17:58:29.325Z,39.80
2018-07-17T18:00:57.748Z,38.70
2018-07-17T18:03:26.197Z,38.90
2018-07-17T18:05:54.972Z,39.20
2018-07-17T18:08:23.469Z,39.60
2018-07-17T18:10:51.922Z,39.60
2018-07-17T18:13:20.392Z,39.60
2018-07-17T18:15:48.856Z,40.00
2018-07-17T18:18:17.272Z,39.80
2018-07-17T18:20:45.774Z,40.70
2018-07-17T18:23:14.208Z,40.00
2018-07-17T18:25:42.661Z,40.30
2018-07-17T18:28:11.256Z,39.90
2018-07-17T18:30:39.711Z,40.20
2018-07-17T18:35:36.586Z,40.60
2018-07-17T18:38:05.100Z,40.70
2018-07-17T18:40:33.625Z,40.80
2018-07-17T18:43:02.174Z,41.40
2018-07-17T18:45:30.688Z,40.90
2018-07-17T18:47:59.134Z,41.30
2018-07-17T18:50:27.617Z,41.20
2018-07-17T18:52:56.081Z,41.50
2018-07-17T18:55:24.563Z,42.40
2018-07-17T18:57:53.049Z,42.80
2018-07-17T19:00:21.521Z,43.60
2018-07-17T19:02:50.114Z,43.60
2018-07-17T19:05:18.865Z,43.70
2018-07-17T19:07:47.452Z,44.00
2018-07-17T19:10:16.313Z,44.30
2018-07-17T19:12:44.764Z,44.80
2018-07-17T19:15:13.810Z,45.30
2018-07-17T19:17:42.278Z,44.50
2018-07-17T19:20:10.732Z,45.00
2018-07-17T19:22:39.425Z,45.50
2018-07-17T19:25:08.274Z,45.60
2018-07-17T19:27:36.855Z,46.00
2018-07-17T19:30:05.978Z,46.00
2018-07-17T19:32:34.393Z,46.30
2018-07-17T19:35:02.902Z,46.30
2018-07-17T19:37:31.514Z,47.60
2018-07-17T19:40:00.143Z,47.20
2018-07-17T19:42:28.621Z,47.70
2018-07-17T19:44:57.101Z,48.30
2018-07-17T19:47:25.575Z,48.80
2018-07-17T19:49:54.371Z,49.30
2018-07-17T19:52:22.871Z,49.90
2018-07-17T19:54:51.517Z,50.10
2018-07-17T19:57:19.984Z,50.40
2018-07-17T19:59:48.777Z,51.30
2018-07-17T20:02:17.374Z,52.00
2018-07-17T20:04:45.874Z,52.70
2018-07-17T20:07:14.505Z,53.10
2018-07-17T20:09:43.010Z,53.50
2018-07-17T20:12:11.471Z,54.30
2018-07-17T20:14:39.997Z,54.20
2018-07-17T20:17:08.474Z,54.30
2018-07-17T20:19:36.957Z,54.10
2018-07-17T20:22:05.713Z,54.60
2018-07-17T20:24:34.291Z,54.30
2018-07-17T20:27:02.864Z,54.70
2018-07-17T20:29:31.409Z,55.20
2018-07-17T20:31:59.855Z,55.40
2018-07-17T20:34:28.309Z,56.10
2018-07-17T20:36:57.600Z,55.90
2018-07-17T20:39:26.038Z,56.40
2018-07-17T20:41:54.534Z,56.00
2018-07-17T20:44:23.010Z,56.00
2018-07-17T20:46:52.172Z,56.00
2018-07-17T20:49:20.677Z,56.10
2018-07-17T20:51:49.198Z,56.10
2018-07-17T20:54:17.689Z,56.70
2018-07-17T20:56:46.140Z,57.40
2018-07-17T20:59:14.589Z,56.90
2018-07-17T21:01:43.083Z,57.10
2018-07-17T21:04:11.589Z,57.00
2018-07-17T21:06:40.082Z,57.30
2018-07-17T21:09:10.301Z,57.50
2018-07-17T21:11:38.783Z,56.60
2018-07-17T21:14:07.281Z,56.80
2018-07-17T21:16:35.759Z,57.00
2018-07-17T21:19:04.804Z,57.40
2018-07-17T21:21:33.257Z,57.60
2018-07-17T21:24:01.734Z,57.50
2018-07-17T21:26:30.181Z,57.80
2018-07-17T21:28:58.669Z,58.10
2018-07-17T21:31:27.148Z,58.40
2018-07-17T21:33:55.700Z,59.10
2018-07-17T21:36:24.142Z,59.30
2018-07-17T21:38:53.423Z,59.30
2018-07-17T21:41:21.845Z,59.70
2018-07-17T21:43:50.328Z,59.90
2018-07-17T21:46:18.793Z,60.10
2018-07-17T21:48:47.364Z,60.70
2018-07-17T21:51:15.848Z,61.30
2018-07-17T21:53:44.441Z,61.70
2018-07-17T21:56:12.893Z,62.20
2018-07-17T21:58:41.356Z,62.90
2018-07-17T22:01:09.841Z,63.20
2018-07-17T22:03:38.304Z,63.20
2018-07-17T22:06:06.733Z,63.70
2018-07-17T22:08:35.167Z,64.20
2018-07-17T22:11:03.725Z,64.90
2018-07-17T22:13:32.656Z,65.10
2018-07-17T22:16:01.478Z,65.30
2018-07-17T22:18:29.896Z,65.60
2018-07-17T22:20:58.474Z,66.20
2018-07-17T22:23:27.196Z,66.50
2018-07-17T22:25:55.942Z,66.60
2018-07-17T22:28:25.296Z,66.90
2018-07-17T22:30:54.301Z,67.30
2018-07-17T22:33:22.816Z,67.80
2018-07-17T22:35:51.319Z,68.20
2018-07-17T22:38:20.567Z,68.80
2018-07-17T22:40:49.019Z,69.80
2018-07-17T22:43:17.492Z,70.30
2018-07-17T22:45:45.936Z,71.10
2018-07-17T22:48:14.405Z,71.20
2018-07-17T22:50:42.864Z,71.40
2018-07-17T22:53:11.320Z,71.50
2018-07-17T22:55:39.742Z,71.90
2018-07-17T22:58:08.732Z,72.50
2018-07-17T23:00:37.277Z,72.60
2018-07-17T23:03:05.732Z,73.20
2018-07-17T23:05:34.259Z,74.30
2018-07-17T23:08:02.685Z,73.10
2018-07-17T23:10:31.129Z,73.70
2018-07-17T23:12:59.623Z,73.10
2018-07-17T23:15:28.044Z,74.40
2018-07-17T23:17:56.436Z,73.60
2018-07-17T23:20:25.072Z,73.30
2018-07-17T23:22:55.627Z,73.90
2018-07-17T23:25:25.374Z,74.10
2018-07-17T23:27:54.526Z,74.30
2018-07-17T23:30:23.022Z,74.90
2018-07-17T23:32:51.933Z,75.50
2018-07-17T23:35:21.552Z,75.90
2018-07-17T23:37:51.697Z,76.30
2018-07-17T23:40:20.773Z,77.00
2018-07-17T23:42:49.899Z,78.00
2018-07-17T23:45:18.741Z,77.70
2018-07-17T23:47:48.038Z,78.30
2018-07-17T23:50:16.475Z,78.50
2018-07-17T23:52:45.040Z,78.80
2018-07-17T23:55:14.308Z,79.00
2018-07-17T23:57:42.991Z,79.00
